Latest Weather Observations for Mount Boyce

IDN60801

Issued at 5:02 pm EDT Wednesday 22 February 2017 (issued every 30 minutes, with the page automatically refreshed every 10 minutes)

About weather observations | Map of weather stations | Latest weather observations for NSW | Other Formats
Station Details ID: 063292 Name: MOUNT BOYCE AWS Lat: -33.62 Lon: 150.27 Height: 1080.0 m
Data from the previous 72 hours. | See also: Recent months at Mount Boyce
Date/Time
EDT
Temp
°C
App
Temp
°C
Dew
Point
°C
Rel
Hum
%
Delta-T
°C
Wind Press
QNH
hPa
Press
MSL
hPa
Rain since
9am
mm
Dir  Spd
km/h
Gust
km/h
Spd
kts
Gust
kts
22/04:30pm 26.6 25.9 14.4 47 7.6 ENE 11 20 6 11 - - 0.0
22/04:00pm 26.6 25.6 14.7 48 7.5 ENE 13 24 7 13 - - 0.0
22/03:30pm 26.1 25.5 14.6 49 7.2 ENE 11 24 6 13 - - 0.0
22/03:00pm 25.8 25.1 14.3 49 7.2 ENE 11 20 6 11 - - 0.0
22/02:30pm 25.6 25.0 14.7 51 6.8 ENE 11 20 6 11 - - 0.0
22/02:00pm 24.9 23.8 14.4 52 6.5 E 13 24 7 13 - - 0.0
22/01:30pm 24.9 24.2 15.5 56 5.9 ENE 13 20 7 11 - - 0.0
22/01:00pm 23.8 23.5 14.5 56 5.8 ENE 9 20 5 11 - - 0.0
22/12:30pm 23.3 22.6 14.3 57 5.6 ENE 11 17 6 9 - - 0.0
22/12:00pm 23.5 23.3 14.8 58 5.4 ENE 9 19 5 10 - - 0.0
22/11:30am 21.4 19.8 12.8 58 5.1 NE 13 20 7 11 - - 0.0
22/11:00am 20.5 19.6 13.7 65 4.1 NNE 11 19 6 10 - - 0.0
22/10:30am 19.9 18.7 12.7 63 4.3 NE 11 20 6 11 - - 0.0
22/10:00am 18.9 17.2 12.6 67 3.7 NE 13 19 7 10 - - 0.0
22/09:30am 18.4 17.4 13.5 73 2.9 ENE 11 19 6 10 - - 0.0
22/09:00am 17.2 16.6 13.5 79 2.2 NE 9 17 5 9 - - 0.0
22/08:30am 15.6 14.8 12.9 84 1.6 NE 9 19 5 10 - - 0.0
22/08:06am 14.8 14.1 13.2 90 0.9 ENE 9 19 5 10 - - 0.0
22/08:00am 14.4 13.6 13.0 91 0.8 NE 9 17 5 9 - - 0.0
22/07:30am 13.7 12.8 12.6 93 0.6 ENE 9 17 5 9 - - 0.0
22/07:00am 13.6 13.1 12.5 93 0.6 NE 7 13 4 7 - - 0.0
22/06:30am 13.5 12.6 12.6 94 0.5 NE 9 17 5 9 - - 0.0
22/06:00am 13.5 12.9 12.4 93 0.6 ENE 7 13 4 7 - - 0.0
22/05:30am 13.4 12.4 12.3 93 0.6 ENE 9 17 5 9 - - 0.0
22/05:00am 13.5 12.5 12.2 92 0.7 ENE 9 17 5 9 - - 0.0
22/04:30am 13.5 12.5 12.4 93 0.6 ENE 9 15 5 8 - - 0.0
22/04:00am 13.4 12.0 12.3 93 0.6 ENE 11 17 6 9 - - 0.0
22/03:30am 13.4 12.3 11.8 90 0.9 ENE 9 15 5 8 - - 0.0
22/03:00am 13.5 12.0 11.9 90 0.9 ENE 11 19 6 10 - - 0.0
22/02:30am 13.4 11.5 11.8 90 0.9 ENE 13 20 7 11 - - 0.0
22/02:00am 13.4 11.9 11.8 90 0.9 ENE 11 20 6 11 - - 0.0
22/01:30am 13.5 12.0 11.9 90 0.9 ENE 11 20 6 11 - - 0.0
22/01:00am 13.7 12.3 12.1 90 0.9 ENE 11 20 6 11 - - 0.0
22/12:30am 13.7 12.3 12.3 91 0.8 ENE 11 17 6 9 - - 0.0
22/12:00am 13.4 12.0 12.1 92 0.7 ENE 11 17 6 9 - - 0.0
 
Date/Time
EDT
Temp
°C
App
Temp
°C
Dew
Point
°C
Rel
Hum
%
Delta-T
°C
Wind Press
QNH
hPa
Press
MSL
hPa
Rain since
9am
mm
Dir  Spd
km/h
Gust
km/h
Spd
kts
Gust
kts
21/11:30pm 13.0 11.5 11.9 93 0.6 ENE 11 17 6 9 - - 0.0
21/11:29pm 13.0 11.5 11.9 93 0.6 ENE 11 17 6 9 - - 0.0
21/11:00pm 12.8 11.5 11.4 91 0.8 ENE 9 15 5 8 - - 0.0
21/10:30pm 13.2 11.9 11.3 88 1.1 ENE 9 15 5 8 - - 0.0
21/10:07pm 13.7 12.1 11.4 86 1.3 ENE 11 19 6 10 - - 0.0
21/10:00pm 13.8 12.1 11.3 85 1.4 ENE 11 19 6 10 - - 0.0
21/09:30pm 14.6 12.7 11.7 83 1.6 ENE 13 22 7 12 - - 0.0
21/09:00pm 14.7 12.8 11.8 83 1.7 ENE 13 22 7 12 - - 0.0
21/08:42pm 14.7 12.8 11.7 82 1.7 ENE 13 20 7 11 - - 0.0
21/08:30pm 14.8 12.8 11.6 81 1.8 ENE 13 24 7 13 - - 0.0
21/08:00pm 15.3 13.2 11.1 76 2.4 ENE 13 24 7 13 - - 0.0
21/07:30pm 16.9 15.1 11.0 68 3.3 ENE 11 20 6 11 - - 0.0
21/07:00pm 18.3 16.1 10.9 62 4.2 E 13 28 7 15 - - 0.0
21/06:30pm 19.7 17.2 9.6 52 5.7 E 13 30 7 16 - - 0.0
21/06:00pm 21.1 19.2 9.0 46 6.8 ENE 9 20 5 11 - - 0.0
21/05:30pm 21.6 19.4 9.2 45 7.0 ENE 11 20 6 11 - - 0.0
21/05:00pm 22.3 20.8 10.5 47 6.8 E 9 19 5 10 - - 0.0
21/04:30pm 22.2 20.7 10.7 48 6.7 ENE 9 17 5 9 - - 0.0
21/04:00pm 21.8 19.7 9.7 46 6.9 ENE 11 20 6 11 - - 0.0
21/03:30pm 21.6 19.8 9.5 46 6.8 ENE 9 20 5 11 - - 0.0
21/03:00pm 21.4 19.3 9.6 47 6.7 ENE 11 17 6 9 - - 0.0
21/02:30pm 21.6 19.8 9.5 46 6.8 ENE 9 19 5 10 - - 0.0
21/02:00pm 21.3 19.2 9.9 48 6.5 ENE 11 17 6 9 - - 0.0
21/01:30pm 19.2 16.6 7.9 48 6.1 NNE 11 19 6 10 - - 0.0
21/01:00pm 19.8 17.4 8.8 49 6.1 ENE 11 24 6 13 - - 0.0
21/12:30pm 19.0 17.1 8.9 52 5.6 ENE 9 19 5 10 - - 0.0
21/12:00pm 18.5 16.9 10.1 58 4.7 ENE 9 19 5 10 - - 0.0
21/11:30am 17.8 15.9 8.9 56 4.9 ENE 9 19 5 10 - - 0.0
21/11:00am 18.6 16.9 9.9 57 4.9 ENE 9 20 5 11 - - 0.0
21/10:30am 17.0 15.6 9.7 62 4.0 ENE 7 19 4 10 - - 0.0
21/10:00am 16.5 14.4 9.9 65 3.7 ENE 11 20 6 11 - - 0.0
21/09:37am 15.1 13.2 9.0 67 3.3 NE 9 17 5 9 - - 0.0
21/09:30am 14.7 12.5 9.3 70 2.9 ENE 11 20 6 11 - - 0.0
21/09:00am 14.1 12.5 8.7 70 2.9 ENE 7 13 4 7 - - 0.0
21/08:30am 13.0 11.7 7.7 70 2.8 ENE 4 7 2 4 - - 0.0
21/08:17am 12.6 10.9 7.7 72 2.5 E 6 11 3 6 - - 0.0
21/08:00am 11.4 10.2 6.5 72 2.5 E 2 7 1 4 - - 0.0
21/07:30am 10.0 8.5 5.0 71 2.4 ESE 2 7 1 4 - - 0.0
21/07:00am 9.3 6.7 3.1 65 2.8 ESE 6 9 3 5 - - 0.0
21/06:30am 9.4 6.1 2.5 62 3.1 SE 9 11 5 6 - - 0.0
21/06:00am 9.5 6.6 2.4 61 3.2 ESE 7 13 4 7 - - 0.0
21/05:30am 9.6 6.3 2.2 60 3.3 SE 9 15 5 8 - - 0.0
21/05:00am 9.6 6.2 2.0 59 3.4 SE 9 13 5 7 - - 0.0
21/04:30am 9.9 6.4 1.5 56 3.7 SE 9 13 5 7 - - 0.0
21/04:00am 10.1 6.6 1.2 54 3.9 SSE 9 13 5 7 - - 0.0
21/03:30am 9.8 6.2 0.4 52 4.1 SSE 9 13 5 7 - - 0.0
21/03:00am 10.1 6.7 -0.4 48 4.5 S 7 11 4 6 - - 0.0
21/02:30am 10.6 6.8 -1.1 44 4.9 SSW 9 13 5 7 - - 0.0
21/02:00am 10.7 6.8 -1.7 42 5.2 SSW 9 9 5 5 - - 0.0
21/01:30am 11.3 7.4 -1.8 40 5.5 S 9 15 5 8 - - 0.0
21/01:00am 11.6 7.7 -1.5 40 5.5 SE 9 15 5 8 - - 0.0
21/12:30am 10.9 7.1 -0.9 44 5.0 ESE 9 13 5 7 - - 0.0
21/12:00am 10.9 7.6 -1.5 42 5.2 ENE 6 6 3 3 - - 0.0
 
Date/Time
EDT
Temp
°C
App
Temp
°C
Dew
Point
°C
Rel
Hum
%
Delta-T
°C
Wind Press
QNH
hPa
Press
MSL
hPa
Rain since
9am
mm
Dir  Spd
km/h
Gust
km/h
Spd
kts
Gust
kts
20/11:30pm 10.3 6.8 -1.7 43 5.0 ENE 7 9 4 5 - - 0.0
20/11:00pm 11.0 7.6 -2.4 39 5.5 ENE 6 9 3 5 - - 0.0
20/10:30pm 11.9 6.7 -3.1 35 6.1 W 15 17 8 9 - - 0.0
20/10:00pm 12.3 7.1 -3.1 34 6.3 WSW 15 20 8 11 - - 0.0
20/09:30pm 12.7 7.4 -3.5 32 6.6 WSW 15 20 8 11 - - 0.0
20/09:00pm 13.1 7.7 -4.1 30 7.0 WSW 15 19 8 10 - - 0.0
20/08:30pm 13.9 9.2 -4.8 27 7.5 WSW 11 17 6 9 - - 0.0
20/08:00pm 14.5 9.4 -5.3 25 7.9 WSW 13 17 7 9 - - 0.0
20/07:30pm 16.3 10.5 -4.3 24 8.6 WSW 17 26 9 14 - - 0.0
20/07:00pm 17.7 11.9 -4.3 22 9.3 WSW 17 26 9 14 - - 0.0
20/06:30pm 18.5 12.8 -3.6 22 9.5 WSW 17 32 9 17 - - 0.0
20/06:00pm 19.5 13.6 -2.2 23 9.7 WSW 19 32 10 17 - - 0.0
20/05:30pm 19.4 13.6 -1.7 24 9.5 WNW 19 32 10 17 - - 0.0
20/05:00pm 19.5 14.0 -2.2 23 9.7 WSW 17 30 9 16 - - 0.0
20/04:30pm 19.2 12.8 -1.8 24 9.4 W 22 35 12 19 - - 0.0
20/04:00pm 19.6 14.2 -1.5 24 9.6 W 17 35 9 19 - - 0.0
20/03:30pm 19.1 13.0 -2.5 23 9.6 WSW 20 32 11 17 - - 0.0
20/03:00pm 18.1 11.1 -3.9 22 9.4 WSW 24 39 13 21 - - 0.0
20/02:30pm 17.9 10.9 -3.5 23 9.2 W 24 35 13 19 - - 0.0
20/02:00pm 17.4 10.8 -3.4 24 8.9 W 22 37 12 20 - - 0.0
20/01:30pm 16.6 10.4 -3.5 25 8.5 W 20 32 11 17 - - 0.0
20/01:00pm 16.2 9.3 -2.3 28 8.0 W 24 35 13 19 - - 0.0
20/12:30pm 15.1 7.4 -3.2 28 7.7 WSW 28 37 15 20 - - 0.0
20/12:00pm 15.0 9.1 -1.1 33 7.1 WSW 20 33 11 18 - - 0.0
20/11:30am 14.2 8.0 -0.6 36 6.5 WSW 22 35 12 19 - - 0.0
20/11:00am 13.2 6.6 -0.1 40 5.9 W 24 37 13 20 - - 0.0
20/10:30am 12.0 4.3 -0.2 43 5.3 WSW 30 46 16 25 - - 0.0
20/10:09am 11.2 3.5 0.0 46 4.9 W 30 52 16 28 - - 0.0
20/10:00am 11.1 4.3 1.1 50 4.5 W 26 43 14 23 - - 0.0
20/09:30am 10.1 3.5 2.0 57 3.6 WSW 26 41 14 22 - - 0.0
20/09:00am 9.1 3.7 2.2 62 3.1 W 20 41 11 22 - - 0.0
20/08:30am 8.1 2.0 2.6 68 2.5 W 24 35 13 19 - - 0.0
20/08:00am 7.6 1.1 2.5 70 2.3 W 26 39 14 21 - - 0.0
20/07:30am 7.3 1.2 3.0 74 1.9 W 24 41 13 22 - - 0.0
20/07:00am 7.1 1.4 2.6 73 2.0 W 22 32 12 17 - - 0.0
20/06:30am 7.1 1.9 2.4 72 2.1 WSW 19 26 10 14 - - 0.0
20/06:00am 7.4 1.5 1.7 67 2.5 WSW 22 30 12 16 - - 0.0
20/05:30am 7.9 2.3 1.5 64 2.8 W 20 30 11 16 - - 0.0
20/05:00am 8.3 2.7 1.2 61 3.1 W 20 30 11 16 - - 0.0
20/04:30am 8.8 2.4 0.8 57 3.5 W 24 35 13 19 - - 0.0
20/04:00am 9.1 2.3 0.8 56 3.6 W 26 39 14 21 - - 0.0
20/03:30am 9.3 1.7 0.7 55 3.7 W 30 50 16 27 - - 0.0
20/03:25am 9.4 1.4 0.6 54 3.8 W 32 50 17 27 - - 0.0
20/03:00am 9.1 2.6 0.3 54 3.8 WSW 24 35 13 19 - - 0.0
20/02:30am 9.5 3.0 0.1 52 4.0 WSW 24 35 13 19 - - 0.0
20/02:00am 10.1 2.4 0.2 50 4.3 WSW 30 43 16 23 - - 0.0
20/01:30am 10.8 4.3 0.0 47 4.7 WSW 24 33 13 18 - - 0.0
20/01:00am 11.1 4.5 -0.1 46 4.9 WSW 24 37 13 20 - - 0.0
20/12:30am 11.2 5.4 0.0 46 4.9 WSW 20 30 11 16 - - 0.0
20/12:00am 11.6 5.8 -0.2 44 5.1 WSW 20 28 11 15 - - 0.0
 
Date/Time
EDT
Temp
°C
App
Temp
°C
Dew
Point
°C
Rel
Hum
%
Delta-T
°C
Wind Press
QNH
hPa
Press
MSL
hPa
Rain since
9am
mm
Dir  Spd
km/h
Gust
km/h
Spd
kts
Gust
kts
19/11:30pm 12.0 6.4 -0.2 43 5.3 WSW 19 28 10 15 - - 0.0
19/11:00pm 12.8 7.0 -0.4 40 5.8 WSW 20 32 11 17 - - 0.0
19/10:30pm 13.1 7.8 -0.9 38 6.1 WSW 17 26 9 14 - - 0.0
19/10:00pm 13.6 7.6 -1.6 35 6.5 WSW 20 28 11 15 - - 0.0
19/09:30pm 14.1 8.1 -1.9 33 6.9 WSW 20 28 11 15 - - 0.0
19/09:00pm 14.9 9.1 -1.6 32 7.2 WSW 19 28 10 15 - - 0.0
19/08:30pm 15.5 10.0 -2.0 30 7.6 WSW 17 28 9 15 - - 0.0
19/08:00pm 16.3 10.2 -2.7 27 8.2 WSW 20 28 11 15 - - 0.0
19/07:30pm 17.7 11.3 -2.0 26 8.7 WSW 22 39 12 21 - - 0.0
19/07:00pm 18.9 12.4 -2.1 24 9.4 WSW 22 39 12 21 - - 0.0
19/06:30pm 19.9 13.9 -1.8 23 9.8 WSW 20 37 11 20 - - 0.0
19/06:00pm 20.6 14.1 0.4 26 9.6 W 24 33 13 18 - - 0.0
19/05:30pm 20.8 14.3 0.1 25 9.8 WSW 24 39 13 21 - - 0.0

Other Formats:

Comma delimited format used in spreadsheet applications
http://www.bom.gov.au/fwo/IDN60801/IDN60801.94743.axf

JavaScript Object Notation format (JSON) in row-major order
http://www.bom.gov.au/fwo/IDN60801/IDN60801.94743.json